sensor_id;sensor_type;location;lat;lon;timestamp;pressure;altitude;pressure_sealevel;temperature;humidity
45937;BME280;31649;46.510;6.498;2023-03-15T07:00:45;95131.53;;;4.71;64.54
45937;BME280;31649;46.510;6.498;2023-03-15T07:03:12;95138.47;;;4.81;64.43
45937;BME280;31649;46.510;6.498;2023-03-15T07:05:38;95144.06;;;4.86;63.68
45937;BME280;31649;46.510;6.498;2023-03-15T07:08:04;95154.22;;;4.87;63.86
45937;BME280;31649;46.510;6.498;2023-03-15T07:10:30;95154.44;;;5.06;64.40
45937;BME280;31649;46.510;6.498;2023-03-15T07:12:56;95152.19;;;5.22;64.03
45937;BME280;31649;46.510;6.498;2023-03-15T07:15:21;95159.28;;;5.40;63.90
45937;BME280;31649;46.510;6.498;2023-03-15T07:17:47;95148.72;;;5.53;63.84
45937;BME280;31649;46.510;6.498;2023-03-15T07:20:12;95152.50;;;5.59;63.55
45937;BME280;31649;46.510;6.498;2023-03-15T07:22:38;95157.28;;;5.64;63.27
45937;BME280;31649;46.510;6.498;2023-03-15T07:25:04;95161.22;;;5.78;63.51
45937;BME280;31649;46.510;6.498;2023-03-15T07:27:31;95176.03;;;5.96;63.35
45937;BME280;31649;46.510;6.498;2023-03-15T07:29:57;95184.72;;;6.04;63.25
45937;BME280;31649;46.510;6.498;2023-03-15T07:32:23;95182.72;;;6.18;62.97
45937;BME280;31649;46.510;6.498;2023-03-15T07:34:48;95177.50;;;6.38;63.04
45937;BME280;31649;46.510;6.498;2023-03-15T07:37:13;95176.13;;;6.54;64.45
45937;BME280;31649;46.510;6.498;2023-03-15T07:39:40;95185.91;;;6.60;62.45
45937;BME280;31649;46.510;6.498;2023-03-15T07:42:06;95181.47;;;6.52;62.19
45937;BME280;31649;46.510;6.498;2023-03-15T07:44:31;95183.03;;;6.63;62.42
45937;BME280;31649;46.510;6.498;2023-03-15T07:46:57;95184.09;;;6.80;61.94
45937;BME280;31649;46.510;6.498;2023-03-15T07:49:23;95186.28;;;6.75;61.48
45937;BME280;31649;46.510;6.498;2023-03-15T07:51:48;95189.75;;;6.46;61.09
45937;BME280;31649;46.510;6.498;2023-03-15T07:54:14;95192.75;;;5.91;59.70
45937;BME280;31649;46.510;6.498;2023-03-15T07:56:39;95194.78;;;5.88;61.75
45937;BME280;31649;46.510;6.498;2023-03-15T07:59:05;95194.69;;;6.09;61.72
45937;BME280;31649;46.510;6.498;2023-03-15T08:01:31;95203.19;;;5.80;59.81
45937;BME280;31649;46.510;6.498;2023-03-15T08:03:56;95205.91;;;5.78;60.09
45937;BME280;31649;46.510;6.498;2023-03-15T08:06:22;95203.47;;;5.77;60.96
45937;BME280;31649;46.510;6.498;2023-03-15T08:08:48;95195.31;;;5.72;60.68
45937;BME280;31649;46.510;6.498;2023-03-15T08:11:13;95198.03;;;5.70;61.51
45937;BME280;31649;46.510;6.498;2023-03-15T08:13:39;95198.56;;;5.64;60.64
45937;BME280;31649;46.510;6.498;2023-03-15T08:16:06;95209.66;;;5.54;59.43
45937;BME280;31649;46.510;6.498;2023-03-15T08:18:31;95207.44;;;5.30;58.49
45937;BME280;31649;46.510;6.498;2023-03-15T08:20:57;95219.75;;;5.16;58.79
45937;BME280;31649;46.510;6.498;2023-03-15T08:23:23;95211.13;;;5.37;57.80
45937;BME280;31649;46.510;6.498;2023-03-15T08:25:49;95222.16;;;5.49;59.84
45937;BME280;31649;46.510;6.498;2023-03-15T08:28:15;95218.00;;;5.78;60.05
45937;BME280;31649;46.510;6.498;2023-03-15T08:30:40;95226.03;;;5.75;59.51
45937;BME280;31649;46.510;6.498;2023-03-15T08:33:06;95226.78;;;5.45;58.79
45937;BME280;31649;46.510;6.498;2023-03-15T08:35:32;95233.19;;;5.71;59.33
45937;BME280;31649;46.510;6.498;2023-03-15T08:37:59;95228.25;;;5.48;58.43
45937;BME280;31649;46.510;6.498;2023-03-15T08:40:27;95232.56;;;5.38;56.70
45937;BME280;31649;46.510;6.498;2023-03-15T08:42:56;95227.56;;;5.46;56.97
45937;BME280;31649;46.510;6.498;2023-03-15T08:45:23;95230.16;;;5.46;56.80
45937;BME280;31649;46.510;6.498;2023-03-15T08:47:53;95230.16;;;5.46;56.99
45937;BME280;31649;46.510;6.498;2023-03-15T08:50:18;95222.53;;;5.44;57.31
45937;BME280;31649;46.510;6.498;2023-03-15T08:52:44;95226.34;;;5.50;56.57
45937;BME280;31649;46.510;6.498;2023-03-15T08:55:10;95225.97;;;5.65;55.71
45937;BME280;31649;46.510;6.498;2023-03-15T08:57:39;95228.22;;;5.38;55.11
45937;BME280;31649;46.510;6.498;2023-03-15T09:00:06;95223.38;;;5.45;54.72
45937;BME280;31649;46.510;6.498;2023-03-15T09:02:39;95223.13;;;5.58;55.02
45937;BME280;31649;46.510;6.498;2023-03-15T09:05:04;95221.25;;;5.90;55.08
45937;BME280;31649;46.510;6.498;2023-03-15T09:07:31;95235.00;;;5.90;52.41
45937;BME280;31649;46.510;6.498;2023-03-15T09:09:57;95230.03;;;5.48;55.06
45937;BME280;31649;46.510;6.498;2023-03-15T09:12:24;95223.97;;;5.27;54.32
45937;BME280;31649;46.510;6.498;2023-03-15T09:14:49;95224.88;;;5.48;51.61
45937;BME280;31649;46.510;6.498;2023-03-15T09:17:15;95220.56;;;5.68;51.53
45937;BME280;31649;46.510;6.498;2023-03-15T09:19:40;95225.34;;;5.73;52.78
45937;BME280;31649;46.510;6.498;2023-03-15T09:22:06;95228.41;;;5.56;52.57
45937;BME280;31649;46.510;6.498;2023-03-15T09:24:32;95228.69;;;5.53;50.85
45937;BME280;31649;46.510;6.498;2023-03-15T09:26:57;95227.31;;;5.49;52.99
45937;BME280;31649;46.510;6.498;2023-03-15T09:29:23;95230.06;;;5.57;50.86
45937;BME280;31649;46.510;6.498;2023-03-15T09:31:49;95221.78;;;5.54;52.42
45937;BME280;31649;46.510;6.498;2023-03-15T09:34:14;95216.38;;;5.77;53.26
45937;BME280;31649;46.510;6.498;2023-03-15T09:36:40;95221.41;;;5.78;51.21
45937;BME280;31649;46.510;6.498;2023-03-15T09:39:05;95220.72;;;5.86;52.85
45937;BME280;31649;46.510;6.498;2023-03-15T09:41:46;95224.38;;;5.84;52.37
45937;BME280;31649;46.510;6.498;2023-03-15T09:44:37;95214.47;;;5.79;51.25
45937;BME280;31649;46.510;6.498;2023-03-15T09:47:24;95220.72;;;5.86;50.45
45937;BME280;31649;46.510;6.498;2023-03-15T09:52:45;95225.94;;;6.26;51.52
45937;BME280;31649;46.510;6.498;2023-03-15T09:55:20;95219.41;;;6.52;49.92
45937;BME280;31649;46.510;6.498;2023-03-15T09:57:57;95208.41;;;6.40;49.20
45937;BME280;31649;46.510;6.498;2023-03-15T10:00:43;95223.38;;;6.06;51.75
45937;BME280;31649;46.510;6.498;2023-03-15T10:03:17;95217.63;;;6.52;48.41
45937;BME280;31649;46.510;6.498;2023-03-15T10:05:55;95217.56;;;6.82;52.18
45937;BME280;31649;46.510;6.498;2023-03-15T10:08:23;95214.06;;;7.11;51.74
45937;BME280;31649;46.510;6.498;2023-03-15T10:10:55;95219.16;;;7.31;51.81
45937;BME280;31649;46.510;6.498;2023-03-15T10:16:19;95218.44;;;7.39;51.72
45937;BME280;31649;46.510;6.498;2023-03-15T10:18:53;95232.91;;;7.31;52.11
45937;BME280;31649;46.510;6.498;2023-03-15T10:21:37;95226.06;;;7.40;52.63
45937;BME280;31649;46.510;6.498;2023-03-15T10:24:33;95224.59;;;7.28;51.77
45937;BME280;31649;46.510;6.498;2023-03-15T10:26:58;95224.81;;;7.16;51.53
45937;BME280;31649;46.510;6.498;2023-03-15T10:29:26;95227.88;;;7.30;52.07
45937;BME280;31649;46.510;6.498;2023-03-15T10:31:53;95226.19;;;7.39;50.08
45937;BME280;31649;46.510;6.498;2023-03-15T10:34:19;95225.94;;;7.32;51.61
45937;BME280;31649;46.510;6.498;2023-03-15T10:36:50;95232.81;;;7.23;49.15
45937;BME280;31649;46.510;6.498;2023-03-15T10:39:20;95231.03;;;7.24;51.29
45937;BME280;31649;46.510;6.498;2023-03-15T10:41:47;95230.53;;;7.10;51.68
45937;BME280;31649;46.510;6.498;2023-03-15T10:44:27;95237.13;;;6.94;51.81
45937;BME280;31649;46.510;6.498;2023-03-15T10:47:11;95237.09;;;7.04;51.38
45937;BME280;31649;46.510;6.498;2023-03-15T10:49:38;95229.81;;;6.90;51.64
45937;BME280;31649;46.510;6.498;2023-03-15T10:52:22;95233.88;;;6.82;51.32
45937;BME280;31649;46.510;6.498;2023-03-15T10:54:50;95227.91;;;6.82;51.28
45937;BME280;31649;46.510;6.498;2023-03-15T10:57:18;95229.94;;;6.78;50.83
45937;BME280;31649;46.510;6.498;2023-03-15T11:00:17;95228.69;;;6.92;51.19
45937;BME280;31649;46.510;6.498;2023-03-15T11:02:50;95240.47;;;7.15;50.42
45937;BME280;31649;46.510;6.498;2023-03-15T11:05:17;95234.53;;;7.32;50.12
45937;BME280;31649;46.510;6.498;2023-03-15T11:07:55;95230.47;;;7.58;49.43
45937;BME280;31649;46.510;6.498;2023-03-15T11:10:22;95235.56;;;7.50;49.42
45937;BME280;31649;46.510;6.498;2023-03-15T11:12:49;95230.53;;;7.48;49.10
45937;BME280;31649;46.510;6.498;2023-03-15T11:15:15;95225.19;;;7.50;49.77
45937;BME280;31649;46.510;6.498;2023-03-15T11:17:47;95220.28;;;7.75;49.93
45937;BME280;31649;46.510;6.498;2023-03-15T11:20:31;95226.88;;;7.69;49.90
45937;BME280;31649;46.510;6.498;2023-03-15T11:23:13;95223.31;;;7.70;50.45
45937;BME280;31649;46.510;6.498;2023-03-15T11:25:39;95225.53;;;7.65;50.36
45937;BME280;31649;46.510;6.498;2023-03-15T11:28:05;95217.28;;;7.51;50.48
45937;BME280;31649;46.510;6.498;2023-03-15T11:30:38;95224.88;;;7.63;50.46
45937;BME280;31649;46.510;6.498;2023-03-15T11:33:07;95224.31;;;7.59;50.05
45937;BME280;31649;46.510;6.498;2023-03-15T11:35:42;95224.59;;;7.84;46.73
45937;BME280;31649;46.510;6.498;2023-03-15T11:38:17;95217.31;;;7.70;45.20
45937;BME280;31649;46.510;6.498;2023-03-15T11:40:52;95224.81;;;7.16;44.58
45937;BME280;31649;46.510;6.498;2023-03-15T11:43:47;95229.72;;;7.10;47.31
45937;BME280;31649;46.510;6.498;2023-03-15T11:46:31;95224.81;;;6.68;48.55
45937;BME280;31649;46.510;6.498;2023-03-15T11:51:32;95228.06;;;6.70;48.15
45937;BME280;31649;46.510;6.498;2023-03-15T11:54:16;95227.31;;;6.98;47.58
45937;BME280;31649;46.510;6.498;2023-03-15T11:59:09;95225.69;;;6.29;48.32
45937;BME280;31649;46.510;6.498;2023-03-15T12:07:05;95220.91;;;6.54;47.40
45937;BME280;31649;46.510;6.498;2023-03-15T12:09:38;95227.53;;;6.57;46.29
45937;BME280;31649;46.510;6.498;2023-03-15T12:17:54;95214.25;;;6.42;47.03
45937;BME280;31649;46.510;6.498;2023-03-15T12:20:41;95223.88;;;6.49;47.14
45937;BME280;31649;46.510;6.498;2023-03-15T12:25:55;95217.03;;;6.78;45.09
45937;BME280;31649;46.510;6.498;2023-03-15T12:28:34;95203.13;;;6.89;44.76
45937;BME280;31649;46.510;6.498;2023-03-15T12:31:02;95203.78;;;6.33;45.81
45937;BME280;31649;46.510;6.498;2023-03-15T12:33:30;95216.38;;;5.87;47.35
45937;BME280;31649;46.510;6.498;2023-03-15T12:36:01;95203.38;;;6.18;45.98
45937;BME280;31649;46.510;6.498;2023-03-15T12:38:38;95202.16;;;6.12;47.71
45937;BME280;31649;46.510;6.498;2023-03-15T12:41:08;95203.47;;;5.87;48.17
45937;BME280;31649;46.510;6.498;2023-03-15T12:44:17;95213.84;;;6.17;46.51
45937;BME280;31649;46.510;6.498;2023-03-15T12:54:51;95210.25;;;5.88;48.02
45937;BME280;31649;46.510;6.498;2023-03-15T12:57:39;95208.94;;;6.33;46.94
45937;BME280;31649;46.510;6.498;2023-03-15T13:00:14;95210.44;;;6.16;47.46
45937;BME280;31649;46.510;6.498;2023-03-15T13:03:01;95216.81;;;6.42;47.62
45937;BME280;31649;46.510;6.498;2023-03-15T13:05:55;95216.25;;;6.38;47.39
45937;BME280;31649;46.510;6.498;2023-03-15T13:08:25;95217.31;;;6.75;46.11
45937;BME280;31649;46.510;6.498;2023-03-15T13:11:28;95219.94;;;6.55;45.97
45937;BME280;31649;46.510;6.498;2023-03-15T13:14:29;95221.91;;;6.91;46.08
45937;BME280;31649;46.510;6.498;2023-03-15T13:23:26;95227.38;;;6.78;46.29
45937;BME280;31649;46.510;6.498;2023-03-15T13:29:20;95228.47;;;7.14;45.94
45937;BME280;31649;46.510;6.498;2023-03-15T13:31:59;95224.84;;;7.06;47.50
45937;BME280;31649;46.510;6.498;2023-03-15T13:34:26;95227.97;;;7.38;44.60
45937;BME280;31649;46.510;6.498;2023-03-15T13:36:57;95222.63;;;7.50;43.70
45937;BME280;31649;46.510;6.498;2023-03-15T13:39:24;95232.66;;;7.25;44.88
45937;BME280;31649;46.510;6.498;2023-03-15T13:42:04;95219.53;;;7.08;44.82
45937;BME280;31649;46.510;6.498;2023-03-15T13:44:31;95233.25;;;6.60;45.70
45937;BME280;31649;46.510;6.498;2023-03-15T13:46:57;95228.19;;;6.79;44.10
45937;BME280;31649;46.510;6.498;2023-03-15T13:49:24;95238.66;;;6.77;44.84
45937;BME280;31649;46.510;6.498;2023-03-15T13:51:54;95243.06;;;6.47;44.16
45937;BME280;31649;46.510;6.498;2023-03-15T13:54:29;95235.03;;;6.50;44.90
45937;BME280;31649;46.510;6.498;2023-03-15T13:59:37;95237.91;;;6.27;46.90
45937;BME280;31649;46.510;6.498;2023-03-15T14:02:12;95234.75;;;6.23;48.09
45937;BME280;31649;46.510;6.498;2023-03-15T14:04:40;95258.69;;;6.15;48.94
45937;BME280;31649;46.510;6.498;2023-03-15T14:07:26;95248.47;;;6.04;49.29
